»·PEaware :: SKW5909 KSAN-KSFO

SKW5909 :: KSAN-KSFO

FLIGHT INFORMATION

Flight Status: Arrived
Operator:
SkyWest Airlines
More flights by this operator :: More flights under this callsign
Pilot: Alfredo R. (12181)
Aircraft: CANADAIR CL-600 CRJ-200
(CRJ2)
More flights by this aircraft type
Origin: KSAN San Diego Intl-Lindbergh
United States
Destination: KSFO San Francisco Intl
United States
More flights between these airports :: More routes between these airports
Route: PADRZ2 IKAYE RIZIN SPLNT STOKD SERFR SERFR4
File this flight plan on PilotEdge
Remarks:
Altitude:
(Current/Filed)
340ft
Speed:
(Current/Filed)
425kts
Departed: 06-Jul-20 06:58 PM
Arrived: 06-Jul-20 08:09 PM
Distance/Time
Traveled:
388nm/1:11
Distance/Time
To Go:
Arrived

Flight Plot

Page will automatically refresh every two minutes.

Flight plan parsing failed; only flown route is shown


Map Options




Map Legend


Flown Route
Filed Route
Departure Airport
Arrival Airport
Navaid (VOR, NDB)
Fix

Horizontal Profiles

Position Reports

Time Latitude Longitude Heading Altitude Ground
Speed
06-Jul-20 18:17 32.734624 -117.203803 195 22ft 0kts
06-Jul-20 18:18 32.734624 -117.203803 195 22ft 0kts
06-Jul-20 18:19 32.734624 -117.203803 195 22ft 0kts
06-Jul-20 18:20 32.734624 -117.203803 195 22ft 0kts
06-Jul-20 18:21 32.734624 -117.203803 195 22ft 0kts
06-Jul-20 18:22 32.734624 -117.203803 195 22ft 0kts
06-Jul-20 18:23 32.734624 -117.203803 195 22ft 0kts
06-Jul-20 18:24 32.734624 -117.203803 195 22ft 0kts
06-Jul-20 18:25 32.734624 -117.203803 195 22ft 0kts
06-Jul-20 18:26 32.734624 -117.203803 195 22ft 0kts
06-Jul-20 18:27 32.734624 -117.203803 195 22ft 0kts
06-Jul-20 18:28 32.734624 -117.203803 195 22ft 0kts
06-Jul-20 18:29 32.734624 -117.203803 195 22ft 0kts
06-Jul-20 18:30 32.734624 -117.203803 195 22ft 0kts
06-Jul-20 18:31 32.734624 -117.203803 195 22ft 0kts
06-Jul-20 18:32 32.734624 -117.203803 195 22ft 0kts
06-Jul-20 18:33 32.734624 -117.203803 195 22ft 0kts
06-Jul-20 18:34 32.734624 -117.203803 195 22ft 0kts
06-Jul-20 18:35 32.734624 -117.203803 195 22ft 0kts
06-Jul-20 18:36 32.734624 -117.203803 195 22ft 0kts
06-Jul-20 18:37 32.734624 -117.203803 195 22ft 0kts
06-Jul-20 18:38 32.734624 -117.203803 195 22ft 0kts
06-Jul-20 18:39 32.734624 -117.203803 195 22ft 0kts
06-Jul-20 18:40 32.734620 -117.203804 195 22ft 0kts
06-Jul-20 18:41 32.735141 -117.203688 155 22ft 2kts
06-Jul-20 18:42 32.735117 -117.203275 106 22ft 0kts
06-Jul-20 18:43 32.735111 -117.203248 105 22ft 0kts
06-Jul-20 18:44 32.735111 -117.203248 105 22ft 0kts
06-Jul-20 18:45 32.735111 -117.203248 105 22ft 0kts
06-Jul-20 18:46 32.735111 -117.203248 105 22ft 0kts
06-Jul-20 18:47 32.735111 -117.203248 105 22ft 0kts
06-Jul-20 18:48 32.735109 -117.203241 105 22ft 0kts
06-Jul-20 18:49 32.735389 -117.202163 50 22ft 3kts
06-Jul-20 18:50 32.734931 -117.199581 105 22ft 13kts
06-Jul-20 18:51 32.733570 -117.193984 106 22ft 20kts
06-Jul-20 18:52 32.732354 -117.188965 106 22ft 15kts
06-Jul-20 18:53 32.731360 -117.184846 105 22ft 12kts
06-Jul-20 18:54 32.730100 -117.179682 106 22ft 20kts
06-Jul-20 18:55 32.729543 -117.176687 74 22ft 0kts
06-Jul-20 18:56 32.729695 -117.176110 69 22ft 6kts
06-Jul-20 18:57 32.731748 -117.182375 284 22ft 91kts
06-Jul-20 18:58 32.747796 -117.236780 286 1630ft 212kts
06-Jul-20 18:59 32.787084 -117.300876 305 4245ft 265kts
06-Jul-20 19:00 32.831575 -117.368158 304 6999ft 260kts
06-Jul-20 19:01 32.877968 -117.439937 304 10019ft 285kts
06-Jul-20 19:02 32.927797 -117.517570 306 12892ft 300kts
06-Jul-20 19:03 32.979072 -117.597353 307 15389ft 314kts
06-Jul-20 19:04 33.036590 -117.681746 316 17956ft 333kts
06-Jul-20 19:05 33.103957 -117.762554 313 20020ft 349kts
06-Jul-20 19:06 33.174616 -117.849454 313 22085ft 366kts
06-Jul-20 19:07 33.246928 -117.938679 313 23149ft 380kts
06-Jul-20 19:08 33.319885 -118.028908 312 24954ft 377kts
06-Jul-20 19:09 33.392172 -118.118573 312 26749ft 375kts
06-Jul-20 19:10 33.464461 -118.208465 312 28551ft 369kts
06-Jul-20 19:11 33.534714 -118.296015 311 30328ft 360kts
06-Jul-20 19:12 33.604420 -118.383153 311 31579ft 362kts
06-Jul-20 19:13 33.674368 -118.470788 311 32753ft 363kts
06-Jul-20 19:14 33.744754 -118.559198 311 33914ft 369kts
06-Jul-20 19:15 33.818035 -118.651503 310 33907ft 395kts
06-Jul-20 19:16 33.893719 -118.747050 310 33918ft 393kts
06-Jul-20 19:17 33.969884 -118.843488 310 33918ft 394kts
06-Jul-20 19:18 34.045944 -118.940060 310 33916ft 394kts
06-Jul-20 19:19 34.121667 -119.036472 310 33917ft 393kts
06-Jul-20 19:20 34.196171 -119.131595 310 33907ft 391kts
06-Jul-20 19:21 34.271129 -119.227465 309 33918ft 393kts
06-Jul-20 19:22 34.346777 -119.324674 309 33914ft 392kts
06-Jul-20 19:23 34.421079 -119.420343 309 33912ft 389kts
06-Jul-20 19:24 34.495213 -119.516056 309 33894ft 388kts
06-Jul-20 19:25 34.569085 -119.611696 309 33893ft 389kts
06-Jul-20 19:26 34.643146 -119.707850 309 33902ft 391kts
06-Jul-20 19:27 34.717588 -119.804746 309 33981ft 392kts
06-Jul-20 19:28 34.793413 -119.901036 311 33983ft 394kts
06-Jul-20 19:29 34.866940 -119.999384 308 33981ft 391kts
06-Jul-20 19:30 34.940969 -120.097225 308 33989ft 391kts
06-Jul-20 19:31 35.014110 -120.193560 308 33987ft 387kts
06-Jul-20 19:32 35.087049 -120.289866 308 33986ft 386kts
06-Jul-20 19:33 35.160178 -120.386726 308 33974ft 386kts
06-Jul-20 19:34 35.232998 -120.483438 308 33967ft 385kts
06-Jul-20 19:35 35.305313 -120.579733 307 33965ft 384kts
06-Jul-20 19:36 35.375672 -120.673734 307 33976ft 383kts
06-Jul-20 19:37 35.448439 -120.771129 306 33977ft 382kts
06-Jul-20 19:38 35.527624 -120.859014 316 33956ft 387kts
06-Jul-20 19:39 35.613301 -120.938630 316 33953ft 382kts
06-Jul-20 19:40 35.697221 -121.016751 316 33838ft 384kts
06-Jul-20 19:41 35.783368 -121.097110 316 32342ft 391kts
06-Jul-20 19:42 35.869620 -121.177848 316 30831ft 388kts
06-Jul-20 19:43 35.954800 -121.257794 316 29309ft 387kts
06-Jul-20 19:44 36.042286 -121.340162 316 27799ft 402kts
06-Jul-20 19:45 36.136981 -121.418167 321 26272ft 412kts
06-Jul-20 19:46 36.234021 -121.493984 322 24732ft 410kts
06-Jul-20 19:47 36.329896 -121.569080 322 23184ft 403kts
06-Jul-20 19:49 36.421383 -121.640922 322 21627ft 377kts
06-Jul-20 19:50 36.508112 -121.709276 321 20124ft 364kts
06-Jul-20 19:51 36.593186 -121.776532 321 18637ft 361kts
06-Jul-20 19:52 36.677360 -121.843272 322 17151ft 358kts
06-Jul-20 19:53 36.765397 -121.900023 340 15659ft 363kts
06-Jul-20 19:54 36.862694 -121.928001 342 14168ft 356kts
06-Jul-20 19:55 36.958174 -121.955865 337 12669ft 342kts
06-Jul-20 19:56 37.045857 -121.989749 338 11160ft 317kts
06-Jul-20 19:57 37.126358 -122.021170 339 9624ft 282kts
06-Jul-20 19:58 37.197840 -122.049097 339 8114ft 266kts
06-Jul-20 19:59 37.267811 -122.076590 339 6622ft 265kts
06-Jul-20 20:00 37.337971 -122.104192 339 5679ft 265kts
06-Jul-20 20:01 37.400180 -122.127313 341 4797ft 219kts
06-Jul-20 20:02 37.459107 -122.146138 343 3874ft 203kts
06-Jul-20 20:03 37.508886 -122.160688 343 3108ft 171kts
06-Jul-20 20:04 37.540594 -122.190332 296 2958ft 145kts
06-Jul-20 20:05 37.561116 -122.238174 292 2180ft 153kts
06-Jul-20 20:06 37.578978 -122.280593 292 1412ft 123kts
06-Jul-20 20:06 37.591830 -122.311175 294 871ft 121kts
06-Jul-20 20:07 37.608130 -122.349812 293 222ft 124kts
06-Jul-20 20:09 37.619970 -122.378155 284 24ft 25kts
06-Jul-20 20:09 37.619741 -122.379128 238 25ft 0kts
06-Jul-20 20:10 37.619087 -122.380258 258 28ft 11kts
06-Jul-20 20:11 37.619153 -122.383401 291 28ft 2kts
06-Jul-20 20:12 37.619170 -122.383457 290 28ft 0kts

Navigation Log

Ident Type
Flight plan parsing failed, navigation log unavailable